sensor_id;sensor_type;location;lat;lon;timestamp;pressure;altitude;pressure_sealevel;temperature;humidity
73624;BME280;61921;53.226;-1.296;2022-11-18T00:01:22;97729.44;;;9.57;98.50
73624;BME280;61921;53.226;-1.296;2022-11-18T00:03:48;97731.36;;;9.58;99.13
73624;BME280;61921;53.226;-1.296;2022-11-18T00:06:14;97727.84;;;9.70;98.52
73624;BME280;61921;53.226;-1.296;2022-11-18T00:08:38;97729.39;;;9.65;98.54
73624;BME280;61921;53.226;-1.296;2022-11-18T00:11:05;97729.89;;;9.65;98.73
73624;BME280;61921;53.226;-1.296;2022-11-18T00:13:28;97730.12;;;9.69;98.49
73624;BME280;61921;53.226;-1.296;2022-11-18T00:15:59;97731.07;;;9.72;98.32
73624;BME280;61921;53.226;-1.296;2022-11-18T00:18:19;97733.79;;;9.70;98.14
73624;BME280;61921;53.226;-1.296;2022-11-18T00:20:45;97735.01;;;9.67;97.66
73624;BME280;61921;53.226;-1.296;2022-11-18T00:23:11;97741.10;;;9.67;97.34
73624;BME280;61921;53.226;-1.296;2022-11-18T00:25:35;97742.35;;;9.71;97.82
73624;BME280;61921;53.226;-1.296;2022-11-18T00:28:01;97743.27;;;9.71;96.95
73624;BME280;61921;53.226;-1.296;2022-11-18T00:30:26;97751.27;;;9.64;97.76
73624;BME280;61921;53.226;-1.296;2022-11-18T00:32:52;97750.34;;;9.68;97.66
73624;BME280;61921;53.226;-1.296;2022-11-18T00:35:18;97757.12;;;9.56;97.37
73624;BME280;61921;53.226;-1.296;2022-11-18T00:37:42;97756.35;;;9.53;97.59
73624;BME280;61921;53.226;-1.296;2022-11-18T00:40:09;97765.98;;;9.49;97.31
73624;BME280;61921;53.226;-1.296;2022-11-18T00:42:35;97762.01;;;9.43;97.46
73624;BME280;61921;53.226;-1.296;2022-11-18T00:44:59;97769.29;;;9.46;97.11
73624;BME280;61921;53.226;-1.296;2022-11-18T00:47:24;97771.05;;;9.47;96.50
73624;BME280;61921;53.226;-1.296;2022-11-18T00:49:49;97772.14;;;9.48;96.63
73624;BME280;61921;53.226;-1.296;2022-11-18T00:52:15;97774.48;;;9.45;96.47
73624;BME280;61921;53.226;-1.296;2022-11-18T00:54:40;97781.76;;;9.46;96.80
73624;BME280;61921;53.226;-1.296;2022-11-18T00:57:06;97780.18;;;9.35;96.92
73624;BME280;61921;53.226;-1.296;2022-11-18T00:59:31;97778.96;;;9.35;96.94
73624;BME280;61921;53.226;-1.296;2022-11-18T01:01:57;97779.58;;;9.33;97.11
73624;BME280;61921;53.226;-1.296;2022-11-18T01:04:22;97782.60;;;9.32;96.93
73624;BME280;61921;53.226;-1.296;2022-11-18T01:06:48;97782.91;;;9.29;96.97
73624;BME280;61921;53.226;-1.296;2022-11-18T01:09:13;97787.41;;;9.27;96.95
73624;BME280;61921;53.226;-1.296;2022-11-18T01:11:38;97793.97;;;9.28;97.35
73624;BME280;61921;53.226;-1.296;2022-11-18T01:14:05;97800.21;;;9.26;97.03
73624;BME280;61921;53.226;-1.296;2022-11-18T01:16:30;97803.26;;;9.25;96.97
73624;BME280;61921;53.226;-1.296;2022-11-18T01:18:55;97807.46;;;9.25;96.94
73624;BME280;61921;53.226;-1.296;2022-11-18T01:21:21;97810.91;;;9.24;96.82
73624;BME280;61921;53.226;-1.296;2022-11-18T01:23:46;97813.60;;;9.22;96.90
73624;BME280;61921;53.226;-1.296;2022-11-18T01:26:13;97819.07;;;9.22;97.01
73624;BME280;61921;53.226;-1.296;2022-11-18T01:28:37;97825.29;;;9.26;96.71
73624;BME280;61921;53.226;-1.296;2022-11-18T01:31:03;97829.92;;;9.24;96.77
73624;BME280;61921;53.226;-1.296;2022-11-18T01:33:27;97829.97;;;9.23;96.85
73624;BME280;61921;53.226;-1.296;2022-11-18T01:35:53;97833.76;;;9.29;96.37
73624;BME280;61921;53.226;-1.296;2022-11-18T01:38:19;97835.80;;;9.27;96.33
73624;BME280;61921;53.226;-1.296;2022-11-18T01:40:44;97840.89;;;9.27;96.31
73624;BME280;61921;53.226;-1.296;2022-11-18T01:43:12;97845.91;;;9.25;96.18
73624;BME280;61921;53.226;-1.296;2022-11-18T01:45:37;97851.92;;;9.23;96.14
73624;BME280;61921;53.226;-1.296;2022-11-18T01:48:05;97858.40;;;9.25;96.25
73624;BME280;61921;53.226;-1.296;2022-11-18T01:50:26;97861.49;;;9.24;96.49
73624;BME280;61921;53.226;-1.296;2022-11-18T01:52:52;97863.43;;;9.31;95.91
73624;BME280;61921;53.226;-1.296;2022-11-18T01:55:20;97870.60;;;9.37;96.05
73624;BME280;61921;53.226;-1.296;2022-11-18T01:57:43;97869.99;;;9.34;95.43
73624;BME280;61921;53.226;-1.296;2022-11-18T02:00:08;97868.32;;;9.33;95.72
73624;BME280;61921;53.226;-1.296;2022-11-18T02:02:35;97867.28;;;9.25;95.91
73624;BME280;61921;53.226;-1.296;2022-11-18T02:05:00;97874.39;;;9.28;95.45
73624;BME280;61921;53.226;-1.296;2022-11-18T02:07:24;97878.13;;;9.36;95.81
73624;BME280;61921;53.226;-1.296;2022-11-18T02:09:49;97884.94;;;9.41;95.16
73624;BME280;61921;53.226;-1.296;2022-11-18T02:12:14;97889.09;;;9.43;95.46
73624;BME280;61921;53.226;-1.296;2022-11-18T02:14:45;97886.91;;;9.44;95.02
73624;BME280;61921;53.226;-1.296;2022-11-18T02:17:10;97889.08;;;9.46;94.92
73624;BME280;61921;53.226;-1.296;2022-11-18T02:19:46;97888.37;;;9.47;95.18
73624;BME280;61921;53.226;-1.296;2022-11-18T02:22:04;97891.16;;;9.45;94.85
73624;BME280;61921;53.226;-1.296;2022-11-18T02:24:30;97889.18;;;9.50;94.96
73624;BME280;61921;53.226;-1.296;2022-11-18T02:29:15;97892.88;;;9.44;94.87
73624;BME280;61921;53.226;-1.296;2022-11-18T02:31:45;97894.55;;;9.46;95.34
73624;BME280;61921;53.226;-1.296;2022-11-18T02:34:09;97895.96;;;9.43;94.97
73624;BME280;61921;53.226;-1.296;2022-11-18T02:36:37;97899.39;;;9.51;94.95
73624;BME280;61921;53.226;-1.296;2022-11-18T02:38:58;97901.51;;;9.59;94.76
73624;BME280;61921;53.226;-1.296;2022-11-18T02:41:24;97905.95;;;9.58;94.64
73624;BME280;61921;53.226;-1.296;2022-11-18T02:43:47;97910.40;;;9.61;94.47
73624;BME280;61921;53.226;-1.296;2022-11-18T02:46:15;97913.99;;;9.67;94.57
73624;BME280;61921;53.226;-1.296;2022-11-18T02:48:40;97922.81;;;9.74;94.20
73624;BME280;61921;53.226;-1.296;2022-11-18T02:51:03;97925.13;;;9.76;93.48
73624;BME280;61921;53.226;-1.296;2022-11-18T02:53:30;97927.53;;;9.79;93.85
73624;BME280;61921;53.226;-1.296;2022-11-18T02:55:54;97930.04;;;9.77;93.72
73624;BME280;61921;53.226;-1.296;2022-11-18T02:58:19;97935.84;;;9.80;93.85
73624;BME280;61921;53.226;-1.296;2022-11-18T03:00:44;97937.03;;;9.77;93.89
73624;BME280;61921;53.226;-1.296;2022-11-18T03:03:25;97940.70;;;9.79;93.97
73624;BME280;61921;53.226;-1.296;2022-11-18T03:05:39;97933.48;;;9.69;93.87
73624;BME280;61921;53.226;-1.296;2022-11-18T03:08:05;97933.01;;;9.68;93.79
73624;BME280;61921;53.226;-1.296;2022-11-18T03:10:31;97937.19;;;9.75;93.38
73624;BME280;61921;53.226;-1.296;2022-11-18T03:12:59;97941.72;;;9.77;93.45
73624;BME280;61921;53.226;-1.296;2022-11-18T03:15:22;97942.64;;;9.79;92.52
73624;BME280;61921;53.226;-1.296;2022-11-18T03:17:49;97947.10;;;9.76;92.85
73624;BME280;61921;53.226;-1.296;2022-11-18T03:20:14;97949.63;;;9.73;92.84
73624;BME280;61921;53.226;-1.296;2022-11-18T03:22:37;97951.97;;;9.73;92.74
73624;BME280;61921;53.226;-1.296;2022-11-18T03:25:06;97955.52;;;9.73;92.61
73624;BME280;61921;53.226;-1.296;2022-11-18T03:27:26;97959.62;;;9.73;92.51
73624;BME280;61921;53.226;-1.296;2022-11-18T03:29:54;97964.83;;;9.72;92.20
73624;BME280;61921;53.226;-1.296;2022-11-18T03:32:19;97969.63;;;9.71;92.98
73624;BME280;61921;53.226;-1.296;2022-11-18T03:34:42;97974.20;;;9.75;92.65
73624;BME280;61921;53.226;-1.296;2022-11-18T03:37:08;97980.52;;;9.78;92.47
73624;BME280;61921;53.226;-1.296;2022-11-18T03:39:34;97987.35;;;9.81;92.61
73624;BME280;61921;53.226;-1.296;2022-11-18T03:42:01;97981.22;;;9.88;92.17
73624;BME280;61921;53.226;-1.296;2022-11-18T03:44:25;97987.40;;;9.82;92.29
73624;BME280;61921;53.226;-1.296;2022-11-18T03:46:50;97989.00;;;9.90;92.62
73624;BME280;61921;53.226;-1.296;2022-11-18T03:49:16;97992.24;;;9.85;92.64
73624;BME280;61921;53.226;-1.296;2022-11-18T03:51:40;97992.56;;;9.87;92.63
73624;BME280;61921;53.226;-1.296;2022-11-18T03:54:08;97997.51;;;9.85;92.98
73624;BME280;61921;53.226;-1.296;2022-11-18T03:56:31;98003.00;;;9.80;92.96
73624;BME280;61921;53.226;-1.296;2022-11-18T03:58:59;98002.21;;;9.78;93.17
73624;BME280;61921;53.226;-1.296;2022-11-18T04:01:23;98008.47;;;9.80;92.94
73624;BME280;61921;53.226;-1.296;2022-11-18T04:03:45;98009.71;;;9.83;92.70
73624;BME280;61921;53.226;-1.296;2022-11-18T04:06:18;98017.05;;;9.74;92.77
73624;BME280;61921;53.226;-1.296;2022-11-18T04:08:38;98023.47;;;9.75;93.07
73624;BME280;61921;53.226;-1.296;2022-11-18T04:11:05;98026.32;;;9.75;93.38
73624;BME280;61921;53.226;-1.296;2022-11-18T04:13:29;98026.74;;;9.75;93.46
73624;BME280;61921;53.226;-1.296;2022-11-18T04:15:53;98037.67;;;9.73;93.31
73624;BME280;61921;53.226;-1.296;2022-11-18T04:18:18;98038.43;;;9.73;93.01
73624;BME280;61921;53.226;-1.296;2022-11-18T04:20:43;98046.50;;;9.75;93.05
73624;BME280;61921;53.226;-1.296;2022-11-18T04:23:08;98043.98;;;9.71;92.94
73624;BME280;61921;53.226;-1.296;2022-11-18T04:25:34;98051.10;;;9.72;92.84
73624;BME280;61921;53.226;-1.296;2022-11-18T04:28:00;98052.02;;;9.75;93.06
73624;BME280;61921;53.226;-1.296;2022-11-18T04:30:25;98048.19;;;9.74;92.44
73624;BME280;61921;53.226;-1.296;2022-11-18T04:32:50;98056.84;;;9.82;92.72
73624;BME280;61921;53.226;-1.296;2022-11-18T04:35:18;98060.84;;;9.78;92.27
73624;BME280;61921;53.226;-1.296;2022-11-18T04:37:41;98066.65;;;9.75;92.57
73624;BME280;61921;53.226;-1.296;2022-11-18T04:40:08;98069.51;;;9.73;91.82
73624;BME280;61921;53.226;-1.296;2022-11-18T04:42:32;98076.10;;;9.79;91.37
73624;BME280;61921;53.226;-1.296;2022-11-18T04:44:58;98082.31;;;9.78;92.26
73624;BME280;61921;53.226;-1.296;2022-11-18T04:47:23;98090.02;;;9.79;91.81
73624;BME280;61921;53.226;-1.296;2022-11-18T04:49:48;98088.24;;;9.80;91.17
73624;BME280;61921;53.226;-1.296;2022-11-18T04:52:14;98089.56;;;9.73;91.48
73624;BME280;61921;53.226;-1.296;2022-11-18T04:54:39;98099.68;;;9.72;91.76
73624;BME280;61921;53.226;-1.296;2022-11-18T04:57:05;98100.07;;;9.72;91.33
73624;BME280;61921;53.226;-1.296;2022-11-18T04:59:30;98108.55;;;9.77;92.07
73624;BME280;61921;53.226;-1.296;2022-11-18T05:01:57;98117.98;;;9.81;91.35
73624;BME280;61921;53.226;-1.296;2022-11-18T05:04:23;98121.48;;;9.81;91.86
73624;BME280;61921;53.226;-1.296;2022-11-18T05:06:46;98123.34;;;9.74;91.60
73624;BME280;61921;53.226;-1.296;2022-11-18T05:09:12;98131.40;;;9.71;92.36
73624;BME280;61921;53.226;-1.296;2022-11-18T05:11:37;98132.28;;;9.66;92.08
73624;BME280;61921;53.226;-1.296;2022-11-18T05:14:02;98146.17;;;9.72;91.33
73624;BME280;61921;53.226;-1.296;2022-11-18T05:16:28;98146.22;;;9.66;91.78
73624;BME280;61921;53.226;-1.296;2022-11-18T05:18:54;98150.92;;;9.73;91.34
73624;BME280;61921;53.226;-1.296;2022-11-18T05:21:19;98154.36;;;9.79;91.83
73624;BME280;61921;53.226;-1.296;2022-11-18T05:23:44;98155.68;;;9.84;90.69
73624;BME280;61921;53.226;-1.296;2022-11-18T05:26:11;98164.35;;;9.84;90.25
73624;BME280;61921;53.226;-1.296;2022-11-18T05:28:36;98167.86;;;9.90;89.95
73624;BME280;61921;53.226;-1.296;2022-11-18T05:31:07;98173.21;;;9.85;89.92
73624;BME280;61921;53.226;-1.296;2022-11-18T05:33:26;98174.20;;;9.95;88.63
73624;BME280;61921;53.226;-1.296;2022-11-18T05:35:51;98179.18;;;9.97;88.36
73624;BME280;61921;53.226;-1.296;2022-11-18T05:38:17;98188.92;;;9.95;88.89
73624;BME280;61921;53.226;-1.296;2022-11-18T05:40:42;98192.45;;;9.95;88.33
73624;BME280;61921;53.226;-1.296;2022-11-18T05:43:08;98198.74;;;9.96;88.56
73624;BME280;61921;53.226;-1.296;2022-11-18T05:45:33;98200.64;;;9.93;88.57
73624;BME280;61921;53.226;-1.296;2022-11-18T05:47:58;98205.94;;;9.96;87.60
73624;BME280;61921;53.226;-1.296;2022-11-18T05:50:24;98204.58;;;10.03;87.85
73624;BME280;61921;53.226;-1.296;2022-11-18T05:52:49;98207.28;;;10.03;88.09
73624;BME280;61921;53.226;-1.296;2022-11-18T05:55:15;98214.27;;;10.00;88.01
73624;BME280;61921;53.226;-1.296;2022-11-18T05:57:40;98212.21;;;9.96;87.61
73624;BME280;61921;53.226;-1.296;2022-11-18T06:00:06;98216.73;;;9.95;87.90
73624;BME280;61921;53.226;-1.296;2022-11-18T06:02:31;98218.08;;;9.99;87.73
73624;BME280;61921;53.226;-1.296;2022-11-18T06:04:58;98228.74;;;10.07;87.23
73624;BME280;61921;53.226;-1.296;2022-11-18T06:07:25;98230.27;;;10.06;87.27
73624;BME280;61921;53.226;-1.296;2022-11-18T06:09:51;98234.48;;;10.10;87.14
73624;BME280;61921;53.226;-1.296;2022-11-18T06:12:13;98238.17;;;10.13;86.60
73624;BME280;61921;53.226;-1.296;2022-11-18T06:14:40;98243.14;;;10.04;87.25
73624;BME280;61921;53.226;-1.296;2022-11-18T06:17:05;98244.01;;;10.07;87.53
73624;BME280;61921;53.226;-1.296;2022-11-18T06:19:29;98250.33;;;10.09;86.59
73624;BME280;61921;53.226;-1.296;2022-11-18T06:21:54;98253.03;;;10.11;86.86
73624;BME280;61921;53.226;-1.296;2022-11-18T06:24:19;98257.85;;;10.07;86.66
73624;BME280;61921;53.226;-1.296;2022-11-18T06:26:45;98264.71;;;10.13;86.59
73624;BME280;61921;53.226;-1.296;2022-11-18T06:29:12;98268.38;;;10.16;86.18
73624;BME280;61921;53.226;-1.296;2022-11-18T06:31:36;98270.23;;;10.20;86.56
73624;BME280;61921;53.226;-1.296;2022-11-18T06:34:01;98278.19;;;10.21;85.67
73624;BME280;61921;53.226;-1.296;2022-11-18T06:36:26;98283.84;;;10.31;86.05
73624;BME280;61921;53.226;-1.296;2022-11-18T06:38:51;98292.05;;;10.30;86.04
73624;BME280;61921;53.226;-1.296;2022-11-18T06:41:22;98292.82;;;10.29;86.16
73624;BME280;61921;53.226;-1.296;2022-11-18T06:43:42;98301.64;;;10.30;86.61
73624;BME280;61921;53.226;-1.296;2022-11-18T06:46:11;98304.81;;;10.15;86.70
73624;BME280;61921;53.226;-1.296;2022-11-18T06:48:33;98312.71;;;10.22;87.57
73624;BME280;61921;53.226;-1.296;2022-11-18T06:50:58;98327.02;;;10.27;87.02
73624;BME280;61921;53.226;-1.296;2022-11-18T06:53:24;98332.14;;;10.30;86.95
73624;BME280;61921;53.226;-1.296;2022-11-18T06:55:49;98336.80;;;10.24;87.41
73624;BME280;61921;53.226;-1.296;2022-11-18T06:58:15;98347.01;;;10.22;88.12
73624;BME280;61921;53.226;-1.296;2022-11-18T07:00:40;98347.15;;;10.04;90.28
73624;BME280;61921;53.226;-1.296;2022-11-18T07:03:05;98350.77;;;10.09;91.47
73624;BME280;61921;53.226;-1.296;2022-11-18T07:05:31;98353.49;;;9.95;91.91
73624;BME280;61921;53.226;-1.296;2022-11-18T07:07:56;98361.39;;;9.91;92.14
73624;BME280;61921;53.226;-1.296;2022-11-18T07:10:22;98362.87;;;9.90;92.36
73624;BME280;61921;53.226;-1.296;2022-11-18T07:12:47;98370.39;;;9.92;92.20
73624;BME280;61921;53.226;-1.296;2022-11-18T07:15:13;98372.59;;;9.89;91.48
73624;BME280;61921;53.226;-1.296;2022-11-18T07:17:38;98372.44;;;9.91;90.90
73624;BME280;61921;53.226;-1.296;2022-11-18T07:20:04;98376.16;;;10.00;90.88
73624;BME280;61921;53.226;-1.296;2022-11-18T07:22:29;98380.71;;;9.96;89.55
73624;BME280;61921;53.226;-1.296;2022-11-18T07:24:54;98386.38;;;9.94;89.05
73624;BME280;61921;53.226;-1.296;2022-11-18T07:27:20;98386.91;;;9.96;87.88
73624;BME280;61921;53.226;-1.296;2022-11-18T07:29:45;98394.52;;;9.96;87.80
73624;BME280;61921;53.226;-1.296;2022-11-18T07:32:10;98395.26;;;9.90;87.93
73624;BME280;61921;53.226;-1.296;2022-11-18T07:34:36;98404.55;;;9.90;87.44
73624;BME280;61921;53.226;-1.296;2022-11-18T07:37:01;98407.95;;;9.80;87.43
73624;BME280;61921;53.226;-1.296;2022-11-18T07:39:27;98415.45;;;9.89;86.37
73624;BME280;61921;53.226;-1.296;2022-11-18T07:41:52;98419.03;;;9.87;86.42
73624;BME280;61921;53.226;-1.296;2022-11-18T07:44:18;98425.84;;;9.83;86.23
73624;BME280;61921;53.226;-1.296;2022-11-18T07:46:43;98436.45;;;9.80;86.31
73624;BME280;61921;53.226;-1.296;2022-11-18T07:49:10;98443.78;;;9.81;86.47
73624;BME280;61921;53.226;-1.296;2022-11-18T07:51:36;98452.59;;;9.83;86.21
73624;BME280;61921;53.226;-1.296;2022-11-18T07:53:59;98456.51;;;9.76;86.27
73624;BME280;61921;53.226;-1.296;2022-11-18T07:56:25;98457.08;;;9.78;85.61
73624;BME280;61921;53.226;-1.296;2022-11-18T07:58:52;98466.02;;;9.77;85.83
73624;BME280;61921;53.226;-1.296;2022-11-18T08:01:18;98467.31;;;9.78;85.22
73624;BME280;61921;53.226;-1.296;2022-11-18T08:03:41;98476.94;;;9.87;85.12
73624;BME280;61921;53.226;-1.296;2022-11-18T08:06:09;98483.16;;;9.93;85.02
73624;BME280;61921;53.226;-1.296;2022-11-18T08:08:32;98485.41;;;9.87;85.17
73624;BME280;61921;53.226;-1.296;2022-11-18T08:10:59;98487.95;;;9.91;85.05
73624;BME280;61921;53.226;-1.296;2022-11-18T08:13:24;98500.42;;;9.86;85.25
73624;BME280;61921;53.226;-1.296;2022-11-18T08:15:48;98509.51;;;9.87;84.87
73624;BME280;61921;53.226;-1.296;2022-11-18T08:18:14;98515.92;;;10.00;84.81
73624;BME280;61921;53.226;-1.296;2022-11-18T08:20:39;98522.23;;;10.01;84.64
73624;BME280;61921;53.226;-1.296;2022-11-18T08:23:05;98525.68;;;10.12;84.57
73624;BME280;61921;53.226;-1.296;2022-11-18T08:25:30;98527.68;;;10.08;83.94
73624;BME280;61921;53.226;-1.296;2022-11-18T08:27:55;98534.35;;;10.13;83.80
73624;BME280;61921;53.226;-1.296;2022-11-18T08:30:21;98536.52;;;10.11;83.95
73624;BME280;61921;53.226;-1.296;2022-11-18T08:32:46;98537.45;;;10.21;84.09
73624;BME280;61921;53.226;-1.296;2022-11-18T08:35:11;98542.57;;;10.23;84.18
73624;BME280;61921;53.226;-1.296;2022-11-18T08:37:37;98546.62;;;10.26;83.76
73624;BME280;61921;53.226;-1.296;2022-11-18T08:40:03;98550.63;;;10.23;83.87
73624;BME280;61921;53.226;-1.296;2022-11-18T08:42:28;98557.27;;;10.24;83.80
73624;BME280;61921;53.226;-1.296;2022-11-18T08:44:53;98565.63;;;10.28;83.60
73624;BME280;61921;53.226;-1.296;2022-11-18T08:47:19;98568.09;;;10.29;83.37
73624;BME280;61921;53.226;-1.296;2022-11-18T08:49:44;98572.42;;;10.36;84.22
73624;BME280;61921;53.226;-1.296;2022-11-18T08:52:09;98568.71;;;10.23;84.24
73624;BME280;61921;53.226;-1.296;2022-11-18T08:54:35;98580.28;;;10.17;84.05
73624;BME280;61921;53.226;-1.296;2022-11-18T08:57:00;98582.87;;;10.21;84.04
73624;BME280;61921;53.226;-1.296;2022-11-18T08:59:26;98588.07;;;10.20;85.03
73624;BME280;61921;53.226;-1.296;2022-11-18T09:01:51;98592.37;;;10.22;84.76
73624;BME280;61921;53.226;-1.296;2022-11-18T09:04:16;98591.33;;;10.26;84.14
73624;BME280;61921;53.226;-1.296;2022-11-18T09:06:41;98599.98;;;10.24;84.65
73624;BME280;61921;53.226;-1.296;2022-11-18T09:09:07;98602.98;;;10.40;84.70
73624;BME280;61921;53.226;-1.296;2022-11-18T09:11:33;98606.62;;;10.37;83.81
73624;BME280;61921;53.226;-1.296;2022-11-18T09:13:58;98610.50;;;10.36;83.46
73624;BME280;61921;53.226;-1.296;2022-11-18T09:16:24;98615.12;;;10.41;83.72
73624;BME280;61921;53.226;-1.296;2022-11-18T09:18:49;98618.64;;;10.31;85.09
73624;BME280;61921;53.226;-1.296;2022-11-18T09:21:14;98627.58;;;10.40;85.33
73624;BME280;61921;53.226;-1.296;2022-11-18T09:23:39;98633.55;;;10.34;86.09
73624;BME280;61921;53.226;-1.296;2022-11-18T09:26:07;98637.80;;;10.33;86.15
73624;BME280;61921;53.226;-1.296;2022-11-18T09:28:31;98641.84;;;10.41;85.86
73624;BME280;61921;53.226;-1.296;2022-11-18T09:30:55;98647.58;;;10.46;86.37
73624;BME280;61921;53.226;-1.296;2022-11-18T09:33:21;98657.16;;;10.62;85.85
73624;BME280;61921;53.226;-1.296;2022-11-18T09:35:47;98663.50;;;10.43;86.14
73624;BME280;61921;53.226;-1.296;2022-11-18T09:38:12;98667.53;;;10.58;85.99
73624;BME280;61921;53.226;-1.296;2022-11-18T09:40:43;98667.22;;;10.62;85.71
73624;BME280;61921;53.226;-1.296;2022-11-18T09:43:08;98672.04;;;10.68;85.26
73624;BME280;61921;53.226;-1.296;2022-11-18T09:45:32;98668.43;;;10.75;84.85
73624;BME280;61921;53.226;-1.296;2022-11-18T09:47:57;98668.40;;;10.85;84.50
73624;BME280;61921;53.226;-1.296;2022-11-18T09:50:20;98675.03;;;10.78;84.36
73624;BME280;61921;53.226;-1.296;2022-11-18T09:52:52;98678.66;;;10.89;84.21
73624;BME280;61921;53.226;-1.296;2022-11-18T09:55:12;98676.98;;;10.89;83.49
73624;BME280;61921;53.226;-1.296;2022-11-18T09:57:37;98679.52;;;10.94;82.75
73624;BME280;61921;53.226;-1.296;2022-11-18T10:00:01;98684.08;;;10.88;82.41
73624;BME280;61921;53.226;-1.296;2022-11-18T10:02:32;98686.86;;;10.90;82.41
73624;BME280;61921;53.226;-1.296;2022-11-18T10:04:51;98693.39;;;10.93;81.39
73624;BME280;61921;53.226;-1.296;2022-11-18T10:07:20;98697.75;;;10.98;81.42
73624;BME280;61921;53.226;-1.296;2022-11-18T10:09:42;98700.41;;;11.01;81.21
73624;BME280;61921;53.226;-1.296;2022-11-18T10:12:17;98701.51;;;11.01;80.95
73624;BME280;61921;53.226;-1.296;2022-11-18T10:14:45;98711.48;;;10.98;81.48
73624;BME280;61921;53.226;-1.296;2022-11-18T10:17:05;98716.80;;;11.04;81.52
73624;BME280;61921;53.226;-1.296;2022-11-18T10:19:28;98715.59;;;11.09;80.23
73624;BME280;61921;53.226;-1.296;2022-11-18T10:21:56;98721.68;;;11.24;78.84
73624;BME280;61921;53.226;-1.296;2022-11-18T10:24:18;98727.98;;;11.15;78.10
73624;BME280;61921;53.226;-1.296;2022-11-18T10:26:40;98729.32;;;11.11;78.52
73624;BME280;61921;53.226;-1.296;2022-11-18T10:29:05;98734.92;;;11.17;78.72
73624;BME280;61921;53.226;-1.296;2022-11-18T10:31:30;98739.44;;;11.19;79.68
73624;BME280;61921;53.226;-1.296;2022-11-18T10:33:59;98743.26;;;11.24;80.38
73624;BME280;61921;53.226;-1.296;2022-11-18T10:36:27;98749.16;;;11.33;78.98
73624;BME280;61921;53.226;-1.296;2022-11-18T10:38:46;98758.41;;;11.47;78.38
73624;BME280;61921;53.226;-1.296;2022-11-18T10:41:18;98758.57;;;11.49;77.60
73624;BME280;61921;53.226;-1.296;2022-11-18T10:43:46;98757.94;;;11.50;77.50
73624;BME280;61921;53.226;-1.296;2022-11-18T10:48:28;98762.58;;;11.39;77.75
73624;BME280;61921;53.226;-1.296;2022-11-18T10:50:53;98765.32;;;11.47;77.59
73624;BME280;61921;53.226;-1.296;2022-11-18T10:53:29;98765.46;;;11.47;77.96
73624;BME280;61921;53.226;-1.296;2022-11-18T10:55:50;98772.90;;;11.69;77.76
73624;BME280;61921;53.226;-1.296;2022-11-18T10:58:12;98775.43;;;11.75;76.70
73624;BME280;61921;53.226;-1.296;2022-11-18T11:00:43;98779.67;;;11.74;76.73
73624;BME280;61921;53.226;-1.296;2022-11-18T11:03:00;98781.40;;;11.90;76.95
73624;BME280;61921;53.226;-1.296;2022-11-18T11:05:26;98792.52;;;11.72;77.90
73624;BME280;61921;53.226;-1.296;2022-11-18T11:08:00;98797.82;;;11.83;77.62
73624;BME280;61921;53.226;-1.296;2022-11-18T11:10:20;98800.81;;;11.76;77.95
73624;BME280;61921;53.226;-1.296;2022-11-18T11:12:43;98809.62;;;11.69;77.68
73624;BME280;61921;53.226;-1.296;2022-11-18T11:15:10;98814.80;;;11.52;77.25
73624;BME280;61921;53.226;-1.296;2022-11-18T11:17:34;98813.79;;;11.51;77.43
73624;BME280;61921;53.226;-1.296;2022-11-18T11:20:04;98819.11;;;11.62;78.55
73624;BME280;61921;53.226;-1.296;2022-11-18T11:22:22;98821.29;;;11.75;77.63
73624;BME280;61921;53.226;-1.296;2022-11-18T11:24:48;98822.40;;;11.76;77.26
73624;BME280;61921;53.226;-1.296;2022-11-18T11:27:22;98830.03;;;11.93;77.80
73624;BME280;61921;53.226;-1.296;2022-11-18T11:29:54;98835.94;;;11.59;77.73
73624;BME280;61921;53.226;-1.296;2022-11-18T11:32:14;98838.63;;;11.63;78.17
73624;BME280;61921;53.226;-1.296;2022-11-18T11:34:37;98835.59;;;11.55;77.54
73624;BME280;61921;53.226;-1.296;2022-11-18T11:36:59;98845.15;;;11.50;77.63
73624;BME280;61921;53.226;-1.296;2022-11-18T11:39:39;98847.90;;;11.53;77.96
73624;BME280;61921;53.226;-1.296;2022-11-18T11:41:50;98856.05;;;11.68;78.34
73624;BME280;61921;53.226;-1.296;2022-11-18T11:44:25;98855.67;;;11.61;78.35
73624;BME280;61921;53.226;-1.296;2022-11-18T11:46:42;98860.02;;;11.78;78.79
73624;BME280;61921;53.226;-1.296;2022-11-18T11:49:14;98865.11;;;11.71;78.21
73624;BME280;61921;53.226;-1.296;2022-11-18T11:51:31;98868.46;;;11.72;78.06
73624;BME280;61921;53.226;-1.296;2022-11-18T11:54:03;98871.34;;;11.65;78.53
73624;BME280;61921;53.226;-1.296;2022-11-18T11:56:26;98872.98;;;11.61;78.96
73624;BME280;61921;53.226;-1.296;2022-11-18T11:59:01;98878.13;;;11.50;79.26
73624;BME280;61921;53.226;-1.296;2022-11-18T12:01:17;98879.05;;;11.57;79.53
73624;BME280;61921;53.226;-1.296;2022-11-18T12:03:43;98881.57;;;11.57;78.45
73624;BME280;61921;53.226;-1.296;2022-11-18T12:05:59;98888.67;;;11.56;79.25
73624;BME280;61921;53.226;-1.296;2022-11-18T12:08:29;98898.71;;;11.50;79.56
73624;BME280;61921;53.226;-1.296;2022-11-18T12:10:54;98900.97;;;11.52;79.05
73624;BME280;61921;53.226;-1.296;2022-11-18T12:13:23;98904.89;;;11.69;79.01
73624;BME280;61921;53.226;-1.296;2022-11-18T12:15:50;98904.70;;;11.78;78.36
73624;BME280;61921;53.226;-1.296;2022-11-18T12:18:11;98904.27;;;11.72;78.15
73624;BME280;61921;53.226;-1.296;2022-11-18T12:20:37;98911.68;;;11.61;79.07
73624;BME280;61921;53.226;-1.296;2022-11-18T12:23:08;98912.47;;;11.50;79.38
73624;BME280;61921;53.226;-1.296;2022-11-18T12:27:57;98924.25;;;11.52;80.29
73624;BME280;61921;53.226;-1.296;2022-11-18T12:30:17;98927.72;;;11.53;80.66
73624;BME280;61921;53.226;-1.296;2022-11-18T12:32:38;98931.42;;;11.43;80.51
73624;BME280;61921;53.226;-1.296;2022-11-18T12:35:21;98934.21;;;11.40;81.72
73624;BME280;61921;53.226;-1.296;2022-11-18T12:37:43;98936.31;;;11.42;81.26
73624;BME280;61921;53.226;-1.296;2022-11-18T12:39:58;98936.19;;;11.47;80.39
73624;BME280;61921;53.226;-1.296;2022-11-18T12:42:34;98940.63;;;11.67;80.19
73624;BME280;61921;53.226;-1.296;2022-11-18T12:44:47;98944.49;;;11.70;79.37
73624;BME280;61921;53.226;-1.296;2022-11-18T12:47:11;98942.75;;;11.46;79.26
73624;BME280;61921;53.226;-1.296;2022-11-18T12:52:02;98955.74;;;11.49;80.06
73624;BME280;61921;53.226;-1.296;2022-11-18T12:54:30;98953.08;;;11.49;79.40